sensor_id;sensor_type;location;lat;lon;timestamp;pressure;altitude;pressure_sealevel;temperature;humidity
54556;BME280;57291;37.520;15.106;2023-05-07T00:00:16;101273.59;;;17.98;59.73
54556;BME280;57291;37.520;15.106;2023-05-07T00:02:46;101262.91;;;17.96;59.36
54556;BME280;57291;37.520;15.106;2023-05-07T00:05:13;101268.75;;;17.95;59.55
54556;BME280;57291;37.520;15.106;2023-05-07T00:07:41;101267.47;;;17.92;59.88
54556;BME280;57291;37.520;15.106;2023-05-07T00:10:10;101258.59;;;17.87;60.00
54556;BME280;57291;37.520;15.106;2023-05-07T00:12:40;101267.53;;;17.84;59.92
54556;BME280;57291;37.520;15.106;2023-05-07T00:15:08;101264.47;;;17.76;60.31
54556;BME280;57291;37.520;15.106;2023-05-07T00:17:35;101265.28;;;17.68;61.14
54556;BME280;57291;37.520;15.106;2023-05-07T00:20:04;101266.31;;;17.64;61.17
54556;BME280;57291;37.520;15.106;2023-05-07T00:22:31;101261.97;;;17.54;61.26
54556;BME280;57291;37.520;15.106;2023-05-07T00:24:59;101271.03;;;17.46;61.77
54556;BME280;57291;37.520;15.106;2023-05-07T00:27:26;101278.00;;;17.43;63.11
54556;BME280;57291;37.520;15.106;2023-05-07T00:29:53;101277.34;;;17.46;63.63
54556;BME280;57291;37.520;15.106;2023-05-07T00:32:20;101273.63;;;17.42;63.34
54556;BME280;57291;37.520;15.106;2023-05-07T00:34:48;101276.88;;;17.35;64.42
54556;BME280;57291;37.520;15.106;2023-05-07T00:37:15;101279.00;;;17.30;66.38
54556;BME280;57291;37.520;15.106;2023-05-07T00:39:42;101279.50;;;17.23;68.15
54556;BME280;57291;37.520;15.106;2023-05-07T00:42:09;101278.06;;;17.17;70.40
54556;BME280;57291;37.520;15.106;2023-05-07T00:44:36;101282.13;;;17.11;73.71
54556;BME280;57291;37.520;15.106;2023-05-07T00:47:04;101286.31;;;17.00;74.77
54556;BME280;57291;37.520;15.106;2023-05-07T00:49:41;101286.81;;;16.93;75.89
54556;BME280;57291;37.520;15.106;2023-05-07T00:52:15;101289.56;;;16.93;78.07
54556;BME280;57291;37.520;15.106;2023-05-07T00:54:43;101292.81;;;16.95;81.95
54556;BME280;57291;37.520;15.106;2023-05-07T00:57:10;101295.88;;;16.85;83.13
54556;BME280;57291;37.520;15.106;2023-05-07T00:59:38;101282.47;;;16.83;86.38
54556;BME280;57291;37.520;15.106;2023-05-07T01:02:07;101281.34;;;16.76;88.62
54556;BME280;57291;37.520;15.106;2023-05-07T01:04:35;101271.00;;;16.55;87.68
54556;BME280;57291;37.520;15.106;2023-05-07T01:07:03;101268.53;;;16.45;86.44
54556;BME280;57291;37.520;15.106;2023-05-07T01:09:32;101270.66;;;16.39;86.37
54556;BME280;57291;37.520;15.106;2023-05-07T01:11:59;101260.78;;;16.30;86.51
54556;BME280;57291;37.520;15.106;2023-05-07T01:14:26;101262.41;;;16.31;86.67
54556;BME280;57291;37.520;15.106;2023-05-07T01:16:54;101261.94;;;16.29;86.46
54556;BME280;57291;37.520;15.106;2023-05-07T01:19:23;101270.97;;;16.29;86.80
54556;BME280;57291;37.520;15.106;2023-05-07T01:21:51;101279.03;;;16.26;87.32
54556;BME280;57291;37.520;15.106;2023-05-07T01:24:20;101277.56;;;16.20;87.76
54556;BME280;57291;37.520;15.106;2023-05-07T01:26:48;101276.56;;;16.15;87.75
54556;BME280;57291;37.520;15.106;2023-05-07T01:29:16;101287.84;;;16.14;87.77
54556;BME280;57291;37.520;15.106;2023-05-07T01:31:46;101282.22;;;16.10;87.86
54556;BME280;57291;37.520;15.106;2023-05-07T01:34:16;101283.00;;;16.11;87.67
54556;BME280;57291;37.520;15.106;2023-05-07T01:36:44;101275.75;;;16.06;87.80
54556;BME280;57291;37.520;15.106;2023-05-07T01:39:13;101270.28;;;16.06;87.60
54556;BME280;57291;37.520;15.106;2023-05-07T01:41:40;101264.16;;;16.09;87.50
54556;BME280;57291;37.520;15.106;2023-05-07T01:44:10;101259.47;;;16.10;87.05
54556;BME280;57291;37.520;15.106;2023-05-07T01:46:39;101251.41;;;16.13;87.18
54556;BME280;57291;37.520;15.106;2023-05-07T01:49:07;101255.91;;;16.18;86.63
54556;BME280;57291;37.520;15.106;2023-05-07T01:51:35;101260.78;;;16.21;86.68
54556;BME280;57291;37.520;15.106;2023-05-07T01:54:02;101254.97;;;16.23;86.47
54556;BME280;57291;37.520;15.106;2023-05-07T01:56:29;101266.91;;;16.27;86.24
54556;BME280;57291;37.520;15.106;2023-05-07T01:58:57;101268.22;;;16.29;86.44
54556;BME280;57291;37.520;15.106;2023-05-07T02:01:24;101258.53;;;16.32;86.71
54556;BME280;57291;37.520;15.106;2023-05-07T02:03:51;101248.22;;;16.37;86.67
54556;BME280;57291;37.520;15.106;2023-05-07T02:06:23;101248.53;;;16.36;86.59
54556;BME280;57291;37.520;15.106;2023-05-07T02:08:54;101248.69;;;16.39;88.11
54556;BME280;57291;37.520;15.106;2023-05-07T02:11:22;101250.16;;;16.37;89.11
54556;BME280;57291;37.520;15.106;2023-05-07T02:13:49;101246.44;;;16.33;89.94
54556;BME280;57291;37.520;15.106;2023-05-07T02:16:16;101242.22;;;16.27;90.90
54556;BME280;57291;37.520;15.106;2023-05-07T02:18:43;101252.88;;;16.20;91.42
54556;BME280;57291;37.520;15.106;2023-05-07T02:21:10;101247.88;;;16.13;92.47
54556;BME280;57291;37.520;15.106;2023-05-07T02:23:37;101248.34;;;16.06;92.95
54556;BME280;57291;37.520;15.106;2023-05-07T02:26:05;101252.81;;;16.02;93.81
54556;BME280;57291;37.520;15.106;2023-05-07T02:28:32;101243.63;;;15.98;94.24
54556;BME280;57291;37.520;15.106;2023-05-07T02:31:04;101244.59;;;15.93;94.68
54556;BME280;57291;37.520;15.106;2023-05-07T02:33:32;101245.22;;;15.90;94.95
54556;BME280;57291;37.520;15.106;2023-05-07T02:36:10;101243.28;;;15.91;95.45
54556;BME280;57291;37.520;15.106;2023-05-07T02:38:48;101247.47;;;15.88;95.87
54556;BME280;57291;37.520;15.106;2023-05-07T02:41:15;101248.59;;;15.87;96.38
54556;BME280;57291;37.520;15.106;2023-05-07T02:43:42;101249.25;;;15.84;96.42
54556;BME280;57291;37.520;15.106;2023-05-07T02:46:09;101251.19;;;15.84;96.37
54556;BME280;57291;37.520;15.106;2023-05-07T02:48:42;101255.22;;;15.86;96.97
54556;BME280;57291;37.520;15.106;2023-05-07T02:51:09;101256.03;;;15.87;97.04
54556;BME280;57291;37.520;15.106;2023-05-07T02:53:39;101264.25;;;15.87;96.83
54556;BME280;57291;37.520;15.106;2023-05-07T02:56:06;101252.16;;;15.88;96.79
54556;BME280;57291;37.520;15.106;2023-05-07T02:58:34;101266.34;;;15.90;96.41
54556;BME280;57291;37.520;15.106;2023-05-07T03:01:02;101261.69;;;15.90;96.14
54556;BME280;57291;37.520;15.106;2023-05-07T03:03:46;101256.19;;;15.90;95.89
54556;BME280;57291;37.520;15.106;2023-05-07T03:06:14;101264.88;;;15.92;95.55
54556;BME280;57291;37.520;15.106;2023-05-07T03:08:41;101264.59;;;15.94;95.41
54556;BME280;57291;37.520;15.106;2023-05-07T03:11:08;101259.91;;;15.94;95.03
54556;BME280;57291;37.520;15.106;2023-05-07T03:13:35;101260.06;;;15.98;94.68
54556;BME280;57291;37.520;15.106;2023-05-07T03:16:03;101266.84;;;16.01;94.40
54556;BME280;57291;37.520;15.106;2023-05-07T03:18:30;101263.78;;;16.02;93.87
54556;BME280;57291;37.520;15.106;2023-05-07T03:20:57;101266.72;;;16.06;93.29
54556;BME280;57291;37.520;15.106;2023-05-07T03:23:25;101265.09;;;16.05;93.11
54556;BME280;57291;37.520;15.106;2023-05-07T03:25:52;101269.47;;;16.06;92.56
54556;BME280;57291;37.520;15.106;2023-05-07T03:28:20;101264.94;;;16.10;91.54
54556;BME280;57291;37.520;15.106;2023-05-07T03:30:53;101268.00;;;16.08;90.12
54556;BME280;57291;37.520;15.106;2023-05-07T03:33:20;101272.50;;;16.04;88.51
54556;BME280;57291;37.520;15.106;2023-05-07T03:35:47;101272.34;;;16.01;86.24
54556;BME280;57291;37.520;15.106;2023-05-07T03:38:19;101269.94;;;15.99;82.63
54556;BME280;57291;37.520;15.106;2023-05-07T03:40:46;101269.09;;;15.99;80.49
54556;BME280;57291;37.520;15.106;2023-05-07T03:43:14;101272.97;;;15.98;79.48
54556;BME280;57291;37.520;15.106;2023-05-07T03:45:46;101280.41;;;15.97;78.33
54556;BME280;57291;37.520;15.106;2023-05-07T03:48:18;101283.13;;;15.97;78.13
54556;BME280;57291;37.520;15.106;2023-05-07T03:50:46;101274.41;;;15.95;77.65
54556;BME280;57291;37.520;15.106;2023-05-07T03:53:16;101268.94;;;15.95;77.55
54556;BME280;57291;37.520;15.106;2023-05-07T03:55:43;101273.31;;;15.96;76.89
54556;BME280;57291;37.520;15.106;2023-05-07T03:58:11;101271.38;;;15.97;76.27
54556;BME280;57291;37.520;15.106;2023-05-07T04:00:38;101281.53;;;15.96;76.10
54556;BME280;57291;37.520;15.106;2023-05-07T04:03:20;101289.44;;;15.98;76.10
54556;BME280;57291;37.520;15.106;2023-05-07T04:05:48;101300.91;;;16.00;75.49
54556;BME280;57291;37.520;15.106;2023-05-07T04:08:15;101299.13;;;16.04;75.16
54556;BME280;57291;37.520;15.106;2023-05-07T04:10:46;101306.09;;;16.10;74.42
54556;BME280;57291;37.520;15.106;2023-05-07T04:13:14;101289.47;;;16.15;74.20
54556;BME280;57291;37.520;15.106;2023-05-07T04:15:41;101304.97;;;16.20;73.58
54556;BME280;57291;37.520;15.106;2023-05-07T04:18:11;101297.22;;;16.22;73.63
54556;BME280;57291;37.520;15.106;2023-05-07T04:20:42;101300.63;;;16.27;73.30
54556;BME280;57291;37.520;15.106;2023-05-07T04:23:12;101296.13;;;16.31;72.45
54556;BME280;57291;37.520;15.106;2023-05-07T04:25:40;101297.13;;;16.35;72.17
54556;BME280;57291;37.520;15.106;2023-05-07T04:28:15;101303.72;;;16.43;72.54
54556;BME280;57291;37.520;15.106;2023-05-07T04:30:43;101309.69;;;16.45;72.26
54556;BME280;57291;37.520;15.106;2023-05-07T04:33:10;101309.53;;;16.50;72.09
54556;BME280;57291;37.520;15.106;2023-05-07T04:35:41;101307.94;;;16.58;71.97
54556;BME280;57291;37.520;15.106;2023-05-07T04:38:08;101311.50;;;16.58;70.80
54556;BME280;57291;37.520;15.106;2023-05-07T04:40:36;101312.28;;;16.68;71.33
54556;BME280;57291;37.520;15.106;2023-05-07T04:43:03;101315.09;;;16.76;71.09
54556;BME280;57291;37.520;15.106;2023-05-07T04:45:38;101317.84;;;16.85;71.34
54556;BME280;57291;37.520;15.106;2023-05-07T04:48:09;101322.34;;;16.98;71.46
54556;BME280;57291;37.520;15.106;2023-05-07T04:50:39;101333.81;;;17.09;71.48
54556;BME280;57291;37.520;15.106;2023-05-07T04:53:07;101327.34;;;17.22;70.84
54556;BME280;57291;37.520;15.106;2023-05-07T04:55:34;101325.69;;;17.39;70.65
54556;BME280;57291;37.520;15.106;2023-05-07T04:58:02;101333.06;;;17.64;70.32
54556;BME280;57291;37.520;15.106;2023-05-07T05:00:34;101333.53;;;18.13;69.84
54556;BME280;57291;37.520;15.106;2023-05-07T05:03:04;101326.69;;;19.45;68.82
54556;BME280;57291;37.520;15.106;2023-05-07T05:05:32;101318.09;;;21.10;63.10
54556;BME280;57291;37.520;15.106;2023-05-07T05:08:00;101327.88;;;22.46;59.18
54556;BME280;57291;37.520;15.106;2023-05-07T05:10:27;101322.38;;;23.24;54.02
54556;BME280;57291;37.520;15.106;2023-05-07T05:12:55;101332.19;;;23.83;53.63
54556;BME280;57291;37.520;15.106;2023-05-07T05:15:23;101335.19;;;23.97;52.92
54556;BME280;57291;37.520;15.106;2023-05-07T05:17:51;101343.63;;;23.81;53.03
54556;BME280;57291;37.520;15.106;2023-05-07T05:20:18;101347.09;;;21.91;56.67
54556;BME280;57291;37.520;15.106;2023-05-07T05:22:47;101345.03;;;21.28;59.11
54556;BME280;57291;37.520;15.106;2023-05-07T05:25:14;101346.19;;;20.71;60.87
54556;BME280;57291;37.520;15.106;2023-05-07T05:27:42;101351.47;;;20.76;62.14
54556;BME280;57291;37.520;15.106;2023-05-07T05:30:10;101349.97;;;21.07;61.16
54556;BME280;57291;37.520;15.106;2023-05-07T05:32:38;101359.75;;;22.40;58.15
54556;BME280;57291;37.520;15.106;2023-05-07T05:35:06;101352.34;;;24.03;53.18
54556;BME280;57291;37.520;15.106;2023-05-07T05:37:35;101350.94;;;24.99;49.17
54556;BME280;57291;37.520;15.106;2023-05-07T05:40:05;101342.88;;;25.21;47.35
54556;BME280;57291;37.520;15.106;2023-05-07T05:42:32;101346.47;;;24.61;49.42
54556;BME280;57291;37.520;15.106;2023-05-07T05:44:59;101352.31;;;25.50;47.75
54556;BME280;57291;37.520;15.106;2023-05-07T05:47:29;101352.56;;;25.75;47.76
54556;BME280;57291;37.520;15.106;2023-05-07T05:49:57;101351.41;;;27.01;44.84
54556;BME280;57291;37.520;15.106;2023-05-07T05:52:24;101350.41;;;27.63;41.44
54556;BME280;57291;37.520;15.106;2023-05-07T05:54:53;101351.13;;;28.70;39.08
54556;BME280;57291;37.520;15.106;2023-05-07T05:57:21;101350.00;;;28.28;40.52
54556;BME280;57291;37.520;15.106;2023-05-07T05:59:48;101359.19;;;28.50;39.31
54556;BME280;57291;37.520;15.106;2023-05-07T06:02:15;101359.97;;;28.47;39.91
54556;BME280;57291;37.520;15.106;2023-05-07T06:04:42;101356.03;;;28.02;39.50
54556;BME280;57291;37.520;15.106;2023-05-07T06:07:13;101356.81;;;27.92;39.59
54556;BME280;57291;37.520;15.106;2023-05-07T06:09:40;101355.56;;;28.57;39.38
54556;BME280;57291;37.520;15.106;2023-05-07T06:12:07;101349.88;;;28.82;38.99
54556;BME280;57291;37.520;15.106;2023-05-07T06:14:35;101362.50;;;26.86;41.18
54556;BME280;57291;37.520;15.106;2023-05-07T06:17:03;101369.59;;;27.82;39.75
54556;BME280;57291;37.520;15.106;2023-05-07T06:19:30;101365.97;;;28.35;39.60
54556;BME280;57291;37.520;15.106;2023-05-07T06:21:59;101369.19;;;28.16;38.38
54556;BME280;57291;37.520;15.106;2023-05-07T06:24:29;101362.41;;;28.02;39.10
54556;BME280;57291;37.520;15.106;2023-05-07T06:26:56;101357.97;;;28.37;37.32
54556;BME280;57291;37.520;15.106;2023-05-07T06:29:27;101366.31;;;28.62;38.21
54556;BME280;57291;37.520;15.106;2023-05-07T06:31:54;101363.75;;;29.14;36.92
54556;BME280;57291;37.520;15.106;2023-05-07T06:34:22;101365.88;;;28.74;38.99
54556;BME280;57291;37.520;15.106;2023-05-07T06:36:50;101363.25;;;29.34;37.11
54556;BME280;57291;37.520;15.106;2023-05-07T06:39:36;101359.72;;;29.15;37.66
54556;BME280;57291;37.520;15.106;2023-05-07T06:42:03;101359.50;;;29.58;36.79
54556;BME280;57291;37.520;15.106;2023-05-07T06:44:32;101368.22;;;29.71;34.55
54556;BME280;57291;37.520;15.106;2023-05-07T06:47:14;101366.19;;;30.24;32.37
54556;BME280;57291;37.520;15.106;2023-05-07T06:49:45;101368.09;;;30.72;31.76
54556;BME280;57291;37.520;15.106;2023-05-07T06:52:15;101371.81;;;30.20;30.84
54556;BME280;57291;37.520;15.106;2023-05-07T06:54:43;101377.59;;;30.47;31.30
54556;BME280;57291;37.520;15.106;2023-05-07T06:57:13;101370.94;;;31.02;29.47
54556;BME280;57291;37.520;15.106;2023-05-07T06:59:40;101378.88;;;31.65;30.44
54556;BME280;57291;37.520;15.106;2023-05-07T07:02:08;101371.88;;;31.77;30.62
54556;BME280;57291;37.520;15.106;2023-05-07T07:04:35;101372.72;;;32.01;29.05
54556;BME280;57291;37.520;15.106;2023-05-07T07:07:08;101382.91;;;31.91;30.07
54556;BME280;57291;37.520;15.106;2023-05-07T07:09:36;101383.06;;;31.26;29.98
54556;BME280;57291;37.520;15.106;2023-05-07T07:12:05;101387.66;;;30.41;32.45
54556;BME280;57291;37.520;15.106;2023-05-07T07:14:35;101387.47;;;29.65;31.54
54556;BME280;57291;37.520;15.106;2023-05-07T07:17:03;101394.28;;;28.69;34.47
54556;BME280;57291;37.520;15.106;2023-05-07T07:19:33;101401.84;;;28.83;33.83
54556;BME280;57291;37.520;15.106;2023-05-07T07:22:02;101405.50;;;28.48;34.78
54556;BME280;57291;37.520;15.106;2023-05-07T07:24:31;101411.38;;;27.39;36.56
54556;BME280;57291;37.520;15.106;2023-05-07T07:27:01;101408.69;;;28.32;34.88
54556;BME280;57291;37.520;15.106;2023-05-07T07:29:30;101412.44;;;29.31;33.37
54556;BME280;57291;37.520;15.106;2023-05-07T07:31:57;101413.75;;;29.12;33.05
54556;BME280;57291;37.520;15.106;2023-05-07T07:34:25;101421.38;;;29.01;32.55
54556;BME280;57291;37.520;15.106;2023-05-07T07:36:52;101416.34;;;29.48;32.40
54556;BME280;57291;37.520;15.106;2023-05-07T07:39:19;101427.25;;;29.98;31.24
54556;BME280;57291;37.520;15.106;2023-05-07T07:41:50;101423.13;;;30.58;30.14
54556;BME280;57291;37.520;15.106;2023-05-07T07:44:18;101432.84;;;30.88;29.76
54556;BME280;57291;37.520;15.106;2023-05-07T07:46:50;101418.78;;;30.92;29.16
54556;BME280;57291;37.520;15.106;2023-05-07T07:49:20;101442.97;;;31.47;28.76
54556;BME280;57291;37.520;15.106;2023-05-07T07:51:47;101430.91;;;31.77;27.57
54556;BME280;57291;37.520;15.106;2023-05-07T07:54:15;101437.69;;;31.80;28.21
54556;BME280;57291;37.520;15.106;2023-05-07T07:56:43;101443.44;;;30.70;30.79
54556;BME280;57291;37.520;15.106;2023-05-07T07:59:12;101444.81;;;29.39;31.74
54556;BME280;57291;37.520;15.106;2023-05-07T08:01:41;101443.28;;;29.20;32.29
54556;BME280;57291;37.520;15.106;2023-05-07T08:04:08;101455.91;;;29.61;31.42
54556;BME280;57291;37.520;15.106;2023-05-07T08:06:39;101444.69;;;29.64;30.58
54556;BME280;57291;37.520;15.106;2023-05-07T08:09:08;101446.69;;;29.64;31.60
54556;BME280;57291;37.520;15.106;2023-05-07T08:11:37;101438.59;;;30.77;30.48
54556;BME280;57291;37.520;15.106;2023-05-07T08:14:04;101450.63;;;31.46;28.98
54556;BME280;57291;37.520;15.106;2023-05-07T08:16:32;101456.75;;;31.03;30.30
54556;BME280;57291;37.520;15.106;2023-05-07T08:19:00;101455.63;;;30.97;31.39
54556;BME280;57291;37.520;15.106;2023-05-07T08:21:28;101454.56;;;30.84;33.99
54556;BME280;57291;37.520;15.106;2023-05-07T08:23:56;101450.31;;;30.17;34.55
54556;BME280;57291;37.520;15.106;2023-05-07T08:26:24;101448.19;;;30.35;35.79
54556;BME280;57291;37.520;15.106;2023-05-07T08:28:51;101449.75;;;29.84;33.37
54556;BME280;57291;37.520;15.106;2023-05-07T08:31:18;101441.72;;;28.98;34.37
54556;BME280;57291;37.520;15.106;2023-05-07T08:33:46;101447.75;;;28.96;33.51
54556;BME280;57291;37.520;15.106;2023-05-07T08:36:14;101445.03;;;28.21;34.94
54556;BME280;57291;37.520;15.106;2023-05-07T08:38:42;101443.44;;;28.56;34.90
54556;BME280;57291;37.520;15.106;2023-05-07T08:41:12;101456.59;;;27.88;37.33
54556;BME280;57291;37.520;15.106;2023-05-07T08:43:44;101461.28;;;27.62;38.78
54556;BME280;57291;37.520;15.106;2023-05-07T08:46:17;101450.91;;;27.59;39.89
54556;BME280;57291;37.520;15.106;2023-05-07T08:48:50;101460.50;;;27.72;38.15
54556;BME280;57291;37.520;15.106;2023-05-07T08:51:20;101452.09;;;26.81;39.13
54556;BME280;57291;37.520;15.106;2023-05-07T08:53:49;101451.34;;;26.84;39.00
54556;BME280;57291;37.520;15.106;2023-05-07T08:56:30;101436.28;;;25.93;40.67
54556;BME280;57291;37.520;15.106;2023-05-07T08:58:57;101450.94;;;26.31;41.14
54556;BME280;57291;37.520;15.106;2023-05-07T09:01:27;101436.31;;;26.44;40.46
54556;BME280;57291;37.520;15.106;2023-05-07T09:03:56;101443.81;;;26.33;40.64
54556;BME280;57291;37.520;15.106;2023-05-07T09:06:25;101445.88;;;26.43;39.22
54556;BME280;57291;37.520;15.106;2023-05-07T09:08:54;101441.69;;;26.16;39.56
54556;BME280;57291;37.520;15.106;2023-05-07T09:11:25;101433.81;;;25.84;41.25
54556;BME280;57291;37.520;15.106;2023-05-07T09:13:56;101435.53;;;24.98;52.97
54556;BME280;57291;37.520;15.106;2023-05-07T09:16:34;101434.06;;;24.28;56.47
54556;BME280;57291;37.520;15.106;2023-05-07T09:19:02;101433.63;;;23.80;57.96
54556;BME280;57291;37.520;15.106;2023-05-07T09:21:29;101439.03;;;23.54;56.29
54556;BME280;57291;37.520;15.106;2023-05-07T09:23:59;101438.03;;;23.23;52.25
54556;BME280;57291;37.520;15.106;2023-05-07T09:26:34;101431.44;;;23.12;53.68
54556;BME280;57291;37.520;15.106;2023-05-07T09:29:04;101432.56;;;23.07;55.86
54556;BME280;57291;37.520;15.106;2023-05-07T09:31:36;101428.81;;;23.19;53.71
54556;BME280;57291;37.520;15.106;2023-05-07T09:34:05;101426.22;;;22.91;53.01
54556;BME280;57291;37.520;15.106;2023-05-07T09:36:34;101424.94;;;22.69;54.11
54556;BME280;57291;37.520;15.106;2023-05-07T09:39:02;101422.69;;;22.75;56.84
54556;BME280;57291;37.520;15.106;2023-05-07T09:41:30;101422.47;;;22.83;57.92
54556;BME280;57291;37.520;15.106;2023-05-07T09:44:06;101419.13;;;22.74;57.57
54556;BME280;57291;37.520;15.106;2023-05-07T09:46:44;101421.47;;;22.56;55.79
54556;BME280;57291;37.520;15.106;2023-05-07T09:49:29;101422.97;;;22.69;57.79
54556;BME280;57291;37.520;15.106;2023-05-07T09:52:05;101419.06;;;22.70;59.01
54556;BME280;57291;37.520;15.106;2023-05-07T09:54:35;101415.59;;;22.58;58.35
54556;BME280;57291;37.520;15.106;2023-05-07T09:57:07;101420.06;;;22.46;57.60
54556;BME280;57291;37.520;15.106;2023-05-07T09:59:37;101420.94;;;22.51;59.29
54556;BME280;57291;37.520;15.106;2023-05-07T10:02:09;101421.94;;;22.58;59.24
54556;BME280;57291;37.520;15.106;2023-05-07T10:04:45;101423.81;;;22.54;59.91
54556;BME280;57291;37.520;15.106;2023-05-07T10:07:20;101416.50;;;22.46;58.27
54556;BME280;57291;37.520;15.106;2023-05-07T10:09:51;101423.63;;;21.99;60.54
54556;BME280;57291;37.520;15.106;2023-05-07T10:12:28;101412.31;;;21.33;66.22
54556;BME280;57291;37.520;15.106;2023-05-07T10:14:56;101407.25;;;20.94;64.10
54556;BME280;57291;37.520;15.106;2023-05-07T10:17:24;101420.69;;;20.96;65.01
54556;BME280;57291;37.520;15.106;2023-05-07T10:19:53;101428.53;;;20.94;65.73
54556;BME280;57291;37.520;15.106;2023-05-07T10:22:22;101423.47;;;20.96;66.28
54556;BME280;57291;37.520;15.106;2023-05-07T10:24:52;101421.03;;;21.06;66.05
54556;BME280;57291;37.520;15.106;2023-05-07T10:27:22;101434.59;;;21.12;65.29
54556;BME280;57291;37.520;15.106;2023-05-07T10:32:39;101438.81;;;21.21;64.75
54556;BME280;57291;37.520;15.106;2023-05-07T10:35:17;101446.22;;;21.58;63.68
54556;BME280;57291;37.520;15.106;2023-05-07T10:37:48;101449.56;;;21.79;63.08
54556;BME280;57291;37.520;15.106;2023-05-07T10:40:17;101440.84;;;21.93;62.60
54556;BME280;57291;37.520;15.106;2023-05-07T10:43:02;101462.69;;;22.42;61.28
54556;BME280;57291;37.520;15.106;2023-05-07T10:46:14;101459.47;;;22.56;61.65
54556;BME280;57291;37.520;15.106;2023-05-07T10:55:19;101472.16;;;22.92;54.68
54556;BME280;57291;37.520;15.106;2023-05-07T10:58:28;101477.13;;;22.67;47.97
54556;BME280;57291;37.520;15.106;2023-05-07T11:01:49;101466.16;;;22.23;48.18
54556;BME280;57291;37.520;15.106;2023-05-07T11:04:24;101465.69;;;22.05;52.67
54556;BME280;57291;37.520;15.106;2023-05-07T11:15:14;101467.84;;;22.43;52.92
54556;BME280;57291;37.520;15.106;2023-05-07T11:17:56;101479.09;;;22.51;55.40
54556;BME280;57291;37.520;15.106;2023-05-07T11:26:22;101483.22;;;22.25;58.55
54556;BME280;57291;37.520;15.106;2023-05-07T11:28:51;101494.66;;;22.23;57.23
54556;BME280;57291;37.520;15.106;2023-05-07T11:31:27;101496.47;;;22.32;58.95
54556;BME280;57291;37.520;15.106;2023-05-07T11:34:24;101481.53;;;22.20;57.41
54556;BME280;57291;37.520;15.106;2023-05-07T11:36:55;101480.38;;;22.21;56.17
54556;BME280;57291;37.520;15.106;2023-05-07T11:39:41;101482.16;;;22.30;55.66
54556;BME280;57291;37.520;15.106;2023-05-07T11:42:31;101478.22;;;22.31;56.07
54556;BME280;57291;37.520;15.106;2023-05-07T11:45:10;101485.47;;;22.51;56.75
54556;BME280;57291;37.520;15.106;2023-05-07T11:47:38;101478.53;;;22.13;54.98
54556;BME280;57291;37.520;15.106;2023-05-07T11:50:10;101477.16;;;22.51;56.41
54556;BME280;57291;37.520;15.106;2023-05-07T11:52:37;101478.03;;;22.55;55.08
54556;BME280;57291;37.520;15.106;2023-05-07T11:55:07;101472.66;;;22.62;52.90
54556;BME280;57291;37.520;15.106;2023-05-07T11:57:35;101480.56;;;22.44;53.59
54556;BME280;57291;37.520;15.106;2023-05-07T12:00:04;101469.56;;;22.64;54.28
54556;BME280;57291;37.520;15.106;2023-05-07T12:02:41;101472.41;;;22.52;55.17
54556;BME280;57291;37.520;15.106;2023-05-07T12:05:09;101469.38;;;22.57;54.66
54556;BME280;57291;37.520;15.106;2023-05-07T12:07:37;101468.47;;;22.37;53.96
54556;BME280;57291;37.520;15.106;2023-05-07T12:10:05;101464.56;;;22.38;55.32
54556;BME280;57291;37.520;15.106;2023-05-07T12:12:39;101462.69;;;22.58;55.62
54556;BME280;57291;37.520;15.106;2023-05-07T12:15:09;101466.72;;;22.44;54.98
54556;BME280;57291;37.520;15.106;2023-05-07T12:17:38;101455.09;;;22.23;55.93
54556;BME280;57291;37.520;15.106;2023-05-07T12:20:06;101462.31;;;22.28;55.39
54556;BME280;57291;37.520;15.106;2023-05-07T12:22:34;101459.13;;;22.26;55.66
54556;BME280;57291;37.520;15.106;2023-05-07T12:25:02;101451.88;;;22.21;55.51
54556;BME280;57291;37.520;15.106;2023-05-07T12:27:29;101448.59;;;22.15;57.34
54556;BME280;57291;37.520;15.106;2023-05-07T12:29:58;101443.63;;;22.09;57.31
54556;BME280;57291;37.520;15.106;2023-05-07T12:32:26;101446.47;;;21.96;57.13
54556;BME280;57291;37.520;15.106;2023-05-07T12:34:53;101435.84;;;21.83;57.43
54556;BME280;57291;37.520;15.106;2023-05-07T12:37:26;101439.41;;;21.83;57.08
54556;BME280;57291;37.520;15.106;2023-05-07T12:40:08;101427.13;;;22.12;57.46
54556;BME280;57291;37.520;15.106;2023-05-07T12:42:38;101421.81;;;21.91;58.30
54556;BME280;57291;37.520;15.106;2023-05-07T12:45:20;101429.78;;;21.93;58.96
54556;BME280;57291;37.520;15.106;2023-05-07T12:47:47;101427.44;;;21.79;59.19
54556;BME280;57291;37.520;15.106;2023-05-07T12:50:15;101426.63;;;21.94;59.39
54556;BME280;57291;37.520;15.106;2023-05-07T12:52:44;101432.09;;;22.07;59.18
54556;BME280;57291;37.520;15.106;2023-05-07T12:55:13;101435.25;;;22.05;58.29
54556;BME280;57291;37.520;15.106;2023-05-07T12:57:43;101435.50;;;22.00;59.17
54556;BME280;57291;37.520;15.106;2023-05-07T13:00:12;101431.06;;;22.27;58.44
54556;BME280;57291;37.520;15.106;2023-05-07T13:02:41;101426.06;;;22.33;58.03
54556;BME280;57291;37.520;15.106;2023-05-07T13:05:08;101421.09;;;21.94;59.18
54556;BME280;57291;37.520;15.106;2023-05-07T13:07:36;101414.94;;;22.01;58.82
54556;BME280;57291;37.520;15.106;2023-05-07T13:10:04;101417.75;;;22.17;58.70
54556;BME280;57291;37.520;15.106;2023-05-07T13:12:32;101414.66;;;22.18;58.30
54556;BME280;57291;37.520;15.106;2023-05-07T13:14:59;101407.28;;;22.10;58.71
54556;BME280;57291;37.520;15.106;2023-05-07T13:17:26;101405.09;;;22.16;58.35